E.r.brandenburg — A8SZ5 — position and weather

sailwx.info

Track history (hours):
 
Tides and Currents Weather Stations Pressure Air Temp Water Temp Dewpoint Dewpoint Depression Visibility Wind Speed Wind Dir Waves Ship Positions

E.r.brandenburg

Last reported at 2018-Jan-20 02:57 UTC. Time now 2018-Feb-23 10:57 UTC.
Position S 39°10' E 143°08'.
Warning: this ship's position is 34 days out of date.

Length 292 m; draft 17.2 m.

Type: Cargo ship. MMSI: 636091798.

Date/timePositionNaut miles runAvg speedWind from/ knotsBaromVisibWave heightAir tempDewpointWater temp
2018-Jan-20 02:57S 39°10' E 143°08'2410.5
2018-Jan-20 00:40S 39°11' E 143°39'2 9.4
2018-Jan-20 00:30S 39°11' E 143°41'1311.9
2018-Jan-19 23:26S 39°11' E 143°57'712.7
2018-Jan-19 22:52S 39°11' E 144°07'1012.2
2018-Jan-19 22:02S 39°11' E 144°20'011.2
2018-Jan-19 22:00S 39°11' E 144°20'611.1
2018-Jan-19 21:29S 39°11' E 144°28'3611.0
2018-Jan-19 18:12S 39°11' E 145°14'410.8
2018-Jan-19 17:51S 39°11' E 145°19'410.6
2018-Jan-19 17:30S 39°11' E 145°24'610.8
2018-Jan-19 17:00S 39°12' E 145°31'510.4
2018-Jan-19 16:29S 39°12' E 145°38'510.5
2018-Jan-19 16:00S 39°12' E 145°44'611.0
2018-Jan-19 15:25S 39°12' E 145°53'610.6
2018-Jan-19 14:52S 39°12' E 145°60'510.8
2018-Jan-19 14:23S 39°12' E 146°07'511.2
2018-Jan-19 13:59S 39°12' E 146°13'1011.4
2018-Jan-19 13:05S 39°11' E 146°26'111.7
2018-Jan-19 13:00S 39°11' E 146°27'711.7
2018-Jan-19 12:22S 39°09' E 146°36'411.3
2018-Jan-19 12:00S 39°08' E 146°41'611.6
2018-Jan-19 11:29S 39°06' E 146°49'611.4
2018-Jan-19 11:00S 39°04' E 146°55'1411.2
2018-Jan-19 09:47S 38°60' E 147°12'610.8
2018-Jan-19 09:13S 38°58' E 147°20'310.8
2018-Jan-19 08:55S 38°57' E 147°23'410.7
2018-Jan-19 08:30S 38°55' E 147°29'510.7
2018-Jan-19 08:00S 38°53' E 147°35'510.6
2018-Jan-19 07:30S 38°51' E 147°42'510.6
2018-Jan-19 07:00S 38°50' E 147°48'510.8
2018-Jan-19 06:31S 38°48' E 147°54'510.8
2018-Jan-19 06:00S 38°46' E 148°01'510.9
2018-Jan-19 05:31S 38°44' E 148°08'611.0
2018-Jan-19 05:00S 38°42' E 148°14'611.6
2018-Jan-19 04:31S 38°39' E 148°21'611.8
2018-Jan-19 04:00S 38°36' E 148°27'611.4
2018-Jan-19 03:29S 38°34' E 148°34'511.1
2018-Jan-19 03:00S 38°31' E 148°40'911.3
2018-Jan-19 02:12S 38°27' E 148°50'311.1
2018-Jan-19 01:56S 38°26' E 148°53'511.3
2018-Jan-19 01:31S 38°24' E 148°59'5211.4
2018-Jan-18 20:58S 37°60' E 149°58'611.3
2018-Jan-18 20:27S 37°57' E 150°04'511.3
2018-Jan-18 19:59S 37°54' E 150°10'611.1
2018-Jan-18 19:24S 37°51' E 150°17'410.9
2018-Jan-18 19:00S 37°49' E 150°22'4010.7
2018-Jan-18 15:17S 37°12' E 150°41'311.5
2018-Jan-18 15:00S 37°09' E 150°43'611.6
2018-Jan-18 14:31S 37°04' E 150°45'1011.8
2018-Jan-18 13:42S 36°55' E 150°50'212.1
2018-Jan-18 13:30S 36°53' E 150°51'7212.6
2018-Jan-18 07:46S 35°45' E 151°20'311.8
2018-Jan-18 07:30S 35°42' E 151°21'611.7
2018-Jan-18 06:59S 35°36' E 151°24'1411.4
2018-Jan-18 05:47S 35°23' E 151°30'2811.1
2018-Jan-18 03:16S 34°58' E 151°43'  
Track history (hours):
 
Tides and Currents Weather Stations Pressure Air Temp Water Temp Dewpoint Dewpoint Depression Visibility Wind Speed Wind Dir Waves Ship Positions

E.r.brandenburg

Last reported at 2018-Jan-20 02:57 UTC. Time now 2018-Feb-23 10:57 UTC.
Position S 39°10' E 143°08'.
Warning: this ship's position is 34 days out of date.

Length 292 m; draft 17.2 m.

Type: Cargo ship. MMSI: 636091798.

Date/timePositionNaut miles runAvg speedWind from/ knotsBaromVisibWave heightAir tempDewpointWater temp
2018-Jan-20 02:57S 39°10' E 143°08'2410.5
2018-Jan-20 00:40S 39°11' E 143°39'2 9.4
2018-Jan-20 00:30S 39°11' E 143°41'1311.9
2018-Jan-19 23:26S 39°11' E 143°57'712.7
2018-Jan-19 22:52S 39°11' E 144°07'1012.2
2018-Jan-19 22:02S 39°11' E 144°20'011.2
2018-Jan-19 22:00S 39°11' E 144°20'611.1
2018-Jan-19 21:29S 39°11' E 144°28'3611.0
2018-Jan-19 18:12S 39°11' E 145°14'410.8
2018-Jan-19 17:51S 39°11' E 145°19'410.6
2018-Jan-19 17:30S 39°11' E 145°24'610.8
2018-Jan-19 17:00S 39°12' E 145°31'510.4
2018-Jan-19 16:29S 39°12' E 145°38'510.5
2018-Jan-19 16:00S 39°12' E 145°44'611.0
2018-Jan-19 15:25S 39°12' E 145°53'610.6
2018-Jan-19 14:52S 39°12' E 145°60'510.8
2018-Jan-19 14:23S 39°12' E 146°07'511.2
2018-Jan-19 13:59S 39°12' E 146°13'1011.4
2018-Jan-19 13:05S 39°11' E 146°26'111.7
2018-Jan-19 13:00S 39°11' E 146°27'711.7
2018-Jan-19 12:22S 39°09' E 146°36'411.3
2018-Jan-19 12:00S 39°08' E 146°41'611.6
2018-Jan-19 11:29S 39°06' E 146°49'611.4
2018-Jan-19 11:00S 39°04' E 146°55'1411.2
2018-Jan-19 09:47S 38°60' E 147°12'610.8
2018-Jan-19 09:13S 38°58' E 147°20'310.8
2018-Jan-19 08:55S 38°57' E 147°23'410.7
2018-Jan-19 08:30S 38°55' E 147°29'510.7
2018-Jan-19 08:00S 38°53' E 147°35'510.6
2018-Jan-19 07:30S 38°51' E 147°42'510.6
2018-Jan-19 07:00S 38°50' E 147°48'510.8
2018-Jan-19 06:31S 38°48' E 147°54'510.8
2018-Jan-19 06:00S 38°46' E 148°01'510.9
2018-Jan-19 05:31S 38°44' E 148°08'611.0
2018-Jan-19 05:00S 38°42' E 148°14'611.6
2018-Jan-19 04:31S 38°39' E 148°21'611.8
2018-Jan-19 04:00S 38°36' E 148°27'611.4
2018-Jan-19 03:29S 38°34' E 148°34'511.1
2018-Jan-19 03:00S 38°31' E 148°40'911.3
2018-Jan-19 02:12S 38°27' E 148°50'311.1
2018-Jan-19 01:56S 38°26' E 148°53'511.3
2018-Jan-19 01:31S 38°24' E 148°59'5211.4
2018-Jan-18 20:58S 37°60' E 149°58'611.3
2018-Jan-18 20:27S 37°57' E 150°04'511.3
2018-Jan-18 19:59S 37°54' E 150°10'611.1
2018-Jan-18 19:24S 37°51' E 150°17'410.9
2018-Jan-18 19:00S 37°49' E 150°22'4010.7
2018-Jan-18 15:17S 37°12' E 150°41'311.5
2018-Jan-18 15:00S 37°09' E 150°43'611.6
2018-Jan-18 14:31S 37°04' E 150°45'1011.8
2018-Jan-18 13:42S 36°55' E 150°50'212.1
2018-Jan-18 13:30S 36°53' E 150°51'7212.6
2018-Jan-18 07:46S 35°45' E 151°20'311.8
2018-Jan-18 07:30S 35°42' E 151°21'611.7
2018-Jan-18 06:59S 35°36' E 151°24'1411.4
2018-Jan-18 05:47S 35°23' E 151°30'2811.1
2018-Jan-18 03:16S 34°58' E 151°43'  

Dump ship's entire track history